Time;durP1;ratioP1;P1;durP2;ratioP2;P2;SDS_P1;SDS_P2;PMS_P1;PMS_P2;Temp;Humidity;BMP_temperature;BMP_pressure;BME280_temperature;BME280_humidity;BME280_pressure;Samples;Min_cycle;Max_cycle;Signal;HPM_P1;HPM_P2
2022/05/18 00:00:14;;;;;;;3.22;2.40;;;;;;;21.56;58.80;100063.66;4922688;29;20023;-84
2022/05/18 00:02:40;;;;;;;4.90;2.75;;;;;;;21.62;58.78;100062.00;4938640;29;20478;-84
2022/05/18 00:05:06;;;;;;;2.40;2.20;;;;;;;21.62;58.93;100062.00;4938627;29;20082;-85
2022/05/18 00:07:31;;;;;;;5.05;2.20;;;;;;;21.65;59.24;100067.03;4923068;29;20043;-84
2022/05/18 00:09:56;;;;;;;4.57;2.65;;;;;;;21.66;59.50;100069.53;4938591;29;20039;-84
2022/05/18 00:12:22;;;;;;;2.83;2.47;;;;;;;21.66;59.07;100072.25;4922546;29;20123;-84
2022/05/18 00:14:48;;;;;;;3.72;2.65;;;;;;;21.64;58.68;100070.78;4922927;29;20493;-84
2022/05/18 00:17:13;;;;;;;3.35;2.50;;;;;;;21.60;59.05;100067.63;4938724;29;20038;-83
2022/05/18 00:19:38;;;;;;;3.47;2.80;;;;;;;21.58;58.62;100072.44;4938470;29;20038;-83
2022/05/18 00:22:04;;;;;;;3.13;2.55;;;;;;;21.54;58.66;100067.63;4922575;29;20087;-84
2022/05/18 00:24:33;;;;;;;2.95;2.50;;;;;;;21.55;58.92;100069.31;4938220;29;20047;-84
2022/05/18 00:26:58;;;;;;;2.78;2.58;;;;;;;21.55;59.37;100075.59;4938263;29;20035;-84
2022/05/18 00:29:23;;;;;;;2.58;2.35;;;;;;;21.49;59.18;100081.84;4922337;28;20594;-84
2022/05/18 00:31:49;;;;;;;2.70;2.20;;;;;;;21.46;59.45;100081.44;4922482;29;20039;-83
2022/05/18 00:34:16;;;;;;;4.88;2.60;;;;;;;21.46;59.71;100084.16;4922302;29;20020;-84
2022/05/18 00:36:41;;;;;;;2.70;2.50;;;;;;;21.40;59.87;100080.38;4938617;29;20023;-84
2022/05/18 00:39:07;;;;;;;3.42;2.40;;;;;;;21.36;59.74;100079.94;4922284;29;20466;-83
2022/05/18 00:41:32;;;;;;;2.92;2.53;;;;;;;21.32;60.41;100080.56;4922162;29;20508;-84
2022/05/18 00:43:58;;;;;;;3.25;2.65;;;;;;;21.29;59.66;100084.53;4954256;29;20042;-84
2022/05/18 00:46:24;;;;;;;5.50;2.67;;;;;;;21.24;59.55;100083.44;4954080;29;20030;-84
2022/05/18 00:48:52;;;;;;;3.30;3.00;;;;;;;21.29;59.72;100083.69;4922215;29;20031;-84
2022/05/18 00:51:23;;;;;;;3.28;2.97;;;;;;;21.29;59.55;100089.97;4938031;29;20028;-84
2022/05/18 00:53:51;;;;;;;3.22;2.58;;;;;;;21.29;59.94;100091.84;4938052;29;20027;-84
2022/05/18 00:56:26;;;;;;;3.60;2.90;;;;;;;21.33;59.33;100090.41;4922161;29;20024;-83
2022/05/18 00:59:05;;;;;;;2.60;2.40;;;;;;;21.25;59.93;100093.28;4922141;29;20028;-84
2022/05/18 01:01:32;;;;;;;2.80;2.60;;;;;;;21.23;60.01;100090.75;4922192;29;20466;-84
2022/05/18 01:03:57;;;;;;;4.15;2.67;;;;;;;21.23;59.57;100084.47;4937611;29;20046;-84
2022/05/18 01:06:26;;;;;;;3.03;2.70;;;;;;;21.23;60.01;100079.88;4940010;29;20039;-84
2022/05/18 01:08:59;;;;;;;2.92;2.35;;;;;;;21.20;58.83;100091.13;4942002;28;20134;-84
2022/05/18 01:11:25;;;;;;;5.47;2.65;;;;;;;21.18;59.82;100090.50;4944937;28;20507;-84
2022/05/18 01:13:50;;;;;;;3.05;2.53;;;;;;;21.15;59.28;100093.63;4944937;28;20018;-83
2022/05/18 01:16:15;;;;;;;4.53;2.67;;;;;;;21.15;59.93;100095.50;4960882;28;20102;-84
2022/05/18 01:18:42;;;;;;;3.97;2.40;;;;;;;21.13;60.02;100094.88;4961060;28;20027;-84
2022/05/18 01:21:08;;;;;;;2.63;2.40;;;;;;;21.13;59.05;100094.88;4944690;28;20035;-83
2022/05/18 01:24:00;;;;;;;2.42;2.20;;;;;;;21.11;59.61;100088.81;4944546;28;20051;-84
2022/05/18 01:26:35;;;;;;;4.00;2.55;;;;;;;21.10;59.07;100085.25;4944865;28;20041;-84
2022/05/18 01:29:01;;;;;;;2.72;2.15;;;;;;;21.09;59.40;100082.72;4960557;28;20533;-84
2022/05/18 01:31:56;;;;;;;2.45;2.25;;;;;;;21.09;59.19;100088.16;4944635;28;20030;-84
2022/05/18 01:34:26;;;;;;;6.57;2.50;;;;;;;21.06;59.27;100090.25;4944338;28;20545;-83
2022/05/18 01:36:52;;;;;;;3.63;2.20;;;;;;;21.05;59.58;100090.47;4960403;28;20034;-84
2022/05/18 01:39:31;;;;;;;2.40;2.20;;;;;;;21.04;58.77;100089.63;4960374;28;20046;-84
2022/05/18 01:42:27;;;;;;;3.05;2.40;;;;;;;21.05;57.43;100080.41;4944380;28;20429;-84
2022/05/18 01:44:53;;;;;;;3.25;2.13;;;;;;;21.12;57.58;100095.91;4960210;28;20035;-84
2022/05/18 01:47:19;;;;;;;3.58;2.10;;;;;;;21.10;56.63;100087.97;4944315;28;20031;-84
2022/05/18 01:49:45;;;;;;;3.70;2.00;;;;;;;21.09;57.19;100090.88;4944122;28;20041;-84
2022/05/18 01:52:11;;;;;;;2.22;2.00;;;;;;;21.15;56.91;100088.19;4960682;28;20034;-84
2022/05/18 01:54:43;;;;;;;3.03;2.13;;;;;;;21.12;57.11;100090.47;4944077;28;20031;-83
2022/05/18 01:57:09;;;;;;;3.35;2.17;;;;;;;21.12;57.17;100093.19;4943994;28;20066;-84
2022/05/18 01:59:36;;;;;;;3.13;2.20;;;;;;;21.11;56.87;100095.06;4944137;28;20030;-84
2022/05/18 02:02:01;;;;;;;3.92;2.20;;;;;;;21.10;56.72;100084.41;4959469;28;20027;-84
2022/05/18 02:04:27;;;;;;;2.70;2.08;;;;;;;21.08;57.13;100087.31;4958651;28;20034;-84
2022/05/18 02:06:52;;;;;;;2.33;2.00;;;;;;;21.07;56.00;100091.09;4958768;28;20073;-84
2022/05/18 02:09:19;;;;;;;2.33;1.95;;;;;;;21.07;56.22;100093.81;4939328;29;20082;-84
2022/05/18 02:11:46;;;;;;;3.17;2.20;;;;;;;21.04;56.56;100086.91;4924974;29;20031;-84
2022/05/18 02:14:11;;;;;;;2.67;2.33;;;;;;;21.01;56.54;100089.19;4924752;29;20027;-84
2022/05/18 02:16:37;;;;;;;2.15;1.98;;;;;;;21.04;55.98;100086.06;4924179;29;20035;-84
2022/05/18 02:19:02;;;;;;;4.18;2.13;;;;;;;21.06;56.40;100087.53;4924061;29;20049;-84
2022/05/18 02:21:28;;;;;;;2.33;2.00;;;;;;;21.08;56.26;100087.31;4924653;29;20351;-84
2022/05/18 02:23:53;;;;;;;3.05;2.20;;;;;;;21.08;56.03;100089.22;4924139;29;20073;-84
2022/05/18 02:26:19;;;;;;;2.60;2.10;;;;;;;21.09;55.88;100093.59;4940254;29;20031;-84
2022/05/18 02:28:45;;;;;;;3.33;2.15;;;;;;;21.04;56.22;100089.63;4924677;29;20027;-83
2022/05/18 02:31:11;;;;;;;2.35;1.98;;;;;;;21.10;55.82;100087.13;4924301;29;20446;-84
2022/05/18 02:33:38;;;;;;;3.28;2.00;;;;;;;21.10;55.98;100087.13;4924355;29;20031;-84
2022/05/18 02:36:07;;;;;;;7.88;2.08;;;;;;;21.12;55.86;100088.59;4940988;29;20023;-84
2022/05/18 02:38:36;;;;;;;3.20;1.70;;;;;;;21.18;55.80;100082.34;4924257;29;20031;-84
2022/05/18 02:41:01;;;;;;;2.80;1.80;;;;;;;21.18;55.73;100089.66;4940057;29;20398;-85
2022/05/18 02:43:27;;;;;;;2.47;1.83;;;;;;;21.19;55.26;100089.47;4940061;29;20063;-84
2022/05/18 02:46:10;;;;;;;3.13;1.98;;;;;;;21.20;55.02;100088.41;4924053;29;20027;-84
2022/05/18 02:48:36;;;;;;;3.33;1.95;;;;;;;21.20;54.55;100079.41;4940003;29;20366;-83
2022/05/18 02:51:03;;;;;;;2.55;1.92;;;;;;;21.19;54.42;100080.47;4923986;29;20024;-83
2022/05/18 02:53:28;;;;;;;2.40;1.70;;;;;;;21.19;54.28;100077.75;4924047;29;20600;-84
2022/05/18 02:56:06;;;;;;;1.67;1.58;;;;;;;21.17;54.36;100077.94;4956989;29;20103;-84
2022/05/18 02:58:52;;;;;;;1.77;1.67;;;;;;;21.17;54.24;100077.09;4941363;29;20030;-84
2022/05/18 03:01:24;;;;;;;2.95;1.63;;;;;;;21.17;53.80;100074.38;4923655;29;20498;-84
2022/05/18 03:03:51;;;;;;;1.73;1.58;;;;;;;21.15;54.95;100081.91;4923784;29;20027;-83
2022/05/18 03:06:19;;;;;;;2.22;1.60;;;;;;;21.16;54.30;100089.03;4923729;29;20027;-84
2022/05/18 03:08:45;;;;;;;2.33;1.77;;;;;;;21.17;54.55;100077.94;4939527;29;20118;-84
2022/05/18 03:11:11;;;;;;;1.70;1.60;;;;;;;21.15;54.47;100082.75;4942919;28;20166;-84
2022/05/18 03:13:37;;;;;;;1.83;1.50;;;;;;;21.18;54.85;100085.06;4942639;28;20031;-84
2022/05/18 03:16:02;;;;;;;2.58;1.60;;;;;;;21.19;54.84;100085.91;4942862;28;20608;-84
2022/05/18 03:18:28;;;;;;;2.10;1.63;;;;;;;21.20;53.97;100085.69;4942565;28;20058;-84
2022/05/18 03:23:38;;;;;;;1.90;1.63;;;;;;;21.15;54.06;100082.75;4960928;28;20065;-83
2022/05/18 03:26:08;;;;;;;2.65;1.50;;;;;;;21.14;54.49;100093.84;4958462;28;20023;-84
2022/05/18 03:28:33;;;;;;;2.78;1.52;;;;;;;21.17;54.14;100090.72;4942199;28;20023;-84
2022/05/18 03:30:59;;;;;;;2.38;1.80;;;;;;;21.14;54.27;100091.13;4942251;28;20026;-84
2022/05/18 03:33:24;;;;;;;3.35;1.70;;;;;;;21.13;54.25;100093.00;4942358;28;20026;-84
2022/05/18 03:35:51;;;;;;;2.65;1.45;;;;;;;21.13;54.58;100093.00;4942225;28;20033;-84
2022/05/18 03:38:17;;;;;;;2.05;1.50;;;;;;;21.17;54.34;100083.38;4958353;28;20034;-84
2022/05/18 03:40:43;;;;;;;4.07;1.67;;;;;;;21.12;54.29;100088.59;4958155;28;20033;-84
2022/05/18 03:43:08;;;;;;;3.15;1.70;;;;;;;21.12;54.77;100091.31;4942298;28;20030;-84
2022/05/18 03:45:33;;;;;;;2.47;1.70;;;;;;;21.17;55.11;100093.44;4958404;28;20027;-84
2022/05/18 03:47:59;;;;;;;1.50;1.40;;;;;;;21.19;54.87;100094.91;4942095;28;20035;-84
2022/05/18 03:50:28;;;;;;;3.45;1.65;;;;;;;21.15;55.23;100082.75;4957981;28;20030;-83
2022/05/18 03:52:53;;;;;;;1.77;1.67;;;;;;;21.12;54.59;100091.31;4942303;28;20022;-84
2022/05/18 03:55:18;;;;;;;2.20;1.70;;;;;;;21.14;54.79;100102.00;4958088;28;20504;-84
2022/05/18 03:57:44;;;;;;;3.20;1.60;;;;;;;21.15;54.96;100103.66;4941794;28;20041;-84
2022/05/18 04:00:10;;;;;;;3.05;1.70;;;;;;;21.11;55.03;100102.41;4957824;28;20377;-84
2022/05/18 04:02:35;;;;;;;1.77;1.42;;;;;;;21.11;54.88;100105.13;4942043;28;20050;-84
2022/05/18 04:05:01;;;;;;;2.90;1.70;;;;;;;21.06;54.45;100103.00;4941797;28;20022;-86
2022/05/18 04:07:26;;;;;;;2.20;1.70;;;;;;;21.00;54.57;100112.81;4941972;28;20050;-86
2022/05/18 04:09:51;;;;;;;1.65;1.55;;;;;;;21.01;54.96;100116.38;4941662;28;20474;-86
2022/05/18 04:12:16;;;;;;;2.20;1.60;;;;;;;21.00;54.76;100115.53;4941568;28;20489;-86
2022/05/18 04:14:42;;;;;;;3.70;1.90;;;;;;;20.96;54.88;100118.88;4957704;28;20026;-86
2022/05/18 04:17:07;;;;;;;2.20;1.63;;;;;;;20.94;55.14;100115.50;4957643;28;20027;-86
2022/05/18 04:19:32;;;;;;;2.55;1.73;;;;;;;20.91;55.19;100124.91;4957695;28;20034;-86
2022/05/18 04:21:58;;;;;;;1.98;1.52;;;;;;;20.88;55.21;100119.88;4957720;28;20026;-85
2022/05/18 04:24:23;;;;;;;3.20;1.70;;;;;;;20.86;55.90;100124.66;4941360;28;20054;-87
2022/05/18 04:26:48;;;;;;;2.78;1.80;;;;;;;20.84;55.58;100124.03;4957741;28;20022;-85
2022/05/18 04:29:14;;;;;;;2.17;1.67;;;;;;;20.88;55.55;100130.75;4957593;28;20089;-86
2022/05/18 04:31:40;;;;;;;2.45;2.17;;;;;;;20.87;55.81;100134.50;4941686;28;20117;-86
2022/05/18 04:34:05;;;;;;;2.17;1.80;;;;;;;20.87;56.11;100141.81;4957592;28;20354;-86
2022/05/18 04:36:31;;;;;;;1.92;1.73;;;;;;;20.84;56.24;100153.94;4941696;28;20049;-86
2022/05/18 04:38:56;;;;;;;2.22;1.77;;;;;;;20.85;56.00;100146.63;4957670;28;20139;-87
2022/05/18 04:41:22;;;;;;;2.35;1.58;;;;;;;20.87;56.35;100149.97;4956864;28;20030;-86
2022/05/18 04:43:47;;;;;;;3.13;1.75;;;;;;;20.82;56.73;100153.31;4957460;28;20540;-86
2022/05/18 04:46:13;;;;;;;2.20;1.70;;;;;;;20.77;57.52;100160.34;4957519;28;20034;-86
2022/05/18 04:48:40;;;;;;;1.80;1.58;;;;;;;20.68;57.33;100160.50;4938006;29;20027;-87
2022/05/18 04:51:05;;;;;;;2.38;1.80;;;;;;;20.69;58.23;100159.47;4922603;29;20106;-86
2022/05/18 04:53:32;;;;;;;2.47;1.67;;;;;;;20.66;58.14;100159.03;4938693;29;20549;-85
2022/05/18 04:55:57;;;;;;;4.45;2.08;;;;;;;20.64;58.87;100161.09;4922394;29;20438;-86
2022/05/18 04:58:23;;;;;;;5.32;2.10;;;;;;;20.68;58.99;100159.66;4938443;29;20039;-86
2022/05/18 05:01:07;;;;;;;4.53;1.98;;;;;;;20.73;60.11;100159.91;4922234;29;20462;-86
2022/05/18 05:03:32;;;;;;;2.33;1.60;;;;;;;20.77;59.91;100166.63;4922400;29;20027;-86
2022/05/18 05:05:58;;;;;;;4.20;1.90;;;;;;;20.78;59.27;100170.19;4938216;29;20024;-86
2022/05/18 05:08:23;;;;;;;4.10;1.88;;;;;;;20.85;59.84;100174.66;4922514;29;20019;-86
2022/05/18 05:10:49;;;;;;;2.38;1.90;;;;;;;20.90;59.58;100174.88;4922143;29;20047;-86
2022/05/18 05:13:14;;;;;;;3.45;2.00;;;;;;;20.93;58.49;100174.50;4937951;29;20043;-86
2022/05/18 05:15:39;;;;;;;2.08;1.52;;;;;;;20.94;57.99;100170.72;4922125;29;20024;-86
2022/05/18 05:18:05;;;;;;;3.08;1.63;;;;;;;21.00;57.96;100179.97;4937853;29;20030;-86
2022/05/18 05:20:30;;;;;;;2.17;1.70;;;;;;;21.03;57.51;100179.56;4947032;28;20029;-86
2022/05/18 05:22:56;;;;;;;1.92;1.58;;;;;;;21.08;58.18;100173.53;4956791;28;20085;-86
2022/05/18 05:25:21;;;;;;;3.13;1.80;;;;;;;21.08;57.67;100184.41;4957046;28;20073;-86
2022/05/18 05:27:47;;;;;;;2.50;1.73;;;;;;;21.08;57.87;100184.41;4941049;28;20429;-87
2022/05/18 05:30:12;;;;;;;2.60;1.45;;;;;;;21.11;57.78;100184.84;4940982;28;20061;-87
2022/05/18 05:32:41;;;;;;;2.88;1.50;;;;;;;21.14;58.01;100192.59;4940959;28;20618;-86
2022/05/18 05:35:07;;;;;;;;;;;;;;;21.15;57.49;100185.28;4941216;28;20126;-87
2022/05/18 05:37:33;;;;;;;3.25;1.80;;;;;;;21.16;58.10;100192.41;4956916;28;19921;-86
2022/05/18 05:39:58;;;;;;;2.10;1.45;;;;;;;21.16;57.89;100197.84;4948661;28;20019;-87
2022/05/18 05:42:24;;;;;;;3.75;1.60;;;;;;;21.19;57.75;100205.59;4956706;28;20097;-87
2022/05/18 05:44:49;;;;;;;2.55;1.30;;;;;;;21.18;57.48;100198.47;4939391;28;20038;-87
2022/05/18 05:47:15;;;;;;;2.10;1.45;;;;;;;21.18;58.16;100209.34;4944468;28;20481;-84
2022/05/18 05:49:42;;;;;;;1.80;1.35;;;;;;;21.19;58.33;100208.31;4933130;28;20382;-85
2022/05/18 05:52:09;;;;;;;2.60;1.48;;;;;;;21.20;58.52;100210.84;4941927;28;20023;-85
2022/05/18 05:54:35;;;;;;;1.33;1.17;;;;;;;21.22;58.01;100213.34;4959519;28;20492;-84
2022/05/18 05:57:03;;;;;;;1.58;1.40;;;;;;;21.22;59.21;100216.06;4940162;28;20462;-83
2022/05/18 05:59:29;;;;;;;1.95;1.30;;;;;;;21.20;59.32;100213.56;4953816;28;20030;-84
2022/05/18 06:01:58;;;;;;;2.83;1.40;;;;;;;21.22;59.17;100210.63;4959175;28;20093;-84
2022/05/18 06:04:24;;;;;;;1.45;1.30;;;;;;;21.20;59.03;100208.13;4943453;28;20073;-84
2022/05/18 06:06:49;;;;;;;2.50;1.40;;;;;;;21.21;59.89;100211.69;4958822;28;20071;-83
2022/05/18 06:09:14;;;;;;;2.03;1.63;;;;;;;21.18;59.82;100212.91;4942124;28;20139;-85
2022/05/18 06:11:40;;;;;;;2.35;1.80;;;;;;;21.09;61.66;100210.56;4975706;28;20443;-84
2022/05/18 06:14:05;;;;;;;2.72;1.90;;;;;;;21.07;61.50;100210.75;4941932;28;20046;-85
2022/05/18 06:16:30;;;;;;;3.13;2.05;;;;;;;21.06;61.92;100211.81;4941240;28;20023;-84
2022/05/18 06:18:56;;;;;;;2.88;1.70;;;;;;;21.03;61.72;100213.03;4941665;28;20041;-85
2022/05/18 06:21:21;;;;;;;2.33;1.40;;;;;;;21.08;61.40;100217.88;4940447;28;20033;-84
2022/05/18 06:23:46;;;;;;;1.73;1.52;;;;;;;21.13;61.85;100217.28;4942558;28;20126;-84
2022/05/18 06:26:12;;;;;;;1.45;1.35;;;;;;;21.17;61.97;100205.78;4942186;28;20019;-85
2022/05/18 06:28:37;;;;;;;1.98;1.30;;;;;;;21.22;61.94;100211.47;4942329;28;20117;-84
2022/05/18 06:31:06;;;;;;;2.28;1.27;;;;;;;21.27;61.49;100202.75;4942812;28;20023;-84
2022/05/18 06:33:31;;;;;;;3.08;1.60;;;;;;;21.32;61.49;100208.44;4939935;28;20456;-84
2022/05/18 06:35:57;;;;;;;1.55;1.45;;;;;;;21.34;61.56;100206.38;4942316;28;20031;-85
2022/05/18 06:38:23;;;;;;;1.67;1.30;;;;;;;21.39;61.17;100211.19;4942491;28;20019;-84
2022/05/18 06:43:32;;;;;;;1.38;1.25;;;;;;;21.41;60.68;100199.06;4957346;28;20054;-85
2022/05/18 06:45:58;;;;;;;2.08;1.50;;;;;;;21.45;60.63;100202.22;4942451;28;20441;-84
2022/05/18 06:48:24;;;;;;;2.25;1.20;;;;;;;21.46;60.71;100204.75;4939460;29;20019;-84
2022/05/18 06:50:49;;;;;;;1.30;1.20;;;;;;;21.47;60.97;100203.69;4938572;28;20069;-84
2022/05/18 06:53:14;;;;;;;1.83;1.27;;;;;;;21.50;61.63;100206.00;4942907;28;20019;-84
2022/05/18 06:55:40;;;;;;;1.70;1.35;;;;;;;21.50;61.60;100213.34;4939739;28;20035;-76
2022/05/18 06:58:05;;;;;;;1.50;1.30;;;;;;;21.50;60.92;100213.34;4956013;28;20030;-76
2022/05/18 07:00:30;;;;;;;2.70;1.15;;;;;;;21.50;62.03;100210.63;4972259;28;20014;-77
2022/05/18 07:02:56;;;;;;;1.40;1.30;;;;;;;21.52;61.12;100213.97;4957207;28;20250;-85
2022/05/18 07:05:22;;;;;;;2.17;1.20;;;;;;;21.53;61.63;100204.75;4957830;28;20035;-85
2022/05/18 07:07:47;;;;;;;2.20;1.17;;;;;;;21.54;61.19;100207.28;4939611;28;20034;-84
2022/05/18 07:10:12;;;;;;;1.33;1.15;;;;;;;21.55;61.18;100200.81;4957570;28;20445;-84
2022/05/18 07:12:38;;;;;;;1.40;1.10;;;;;;;21.56;58.88;100207.91;4958167;28;20531;-85
2022/05/18 07:15:05;;;;;;;2.95;1.40;;;;;;;21.59;58.56;100199.34;4923616;29;20529;-84
2022/05/18 07:17:31;;;;;;;1.27;1.17;;;;;;;21.63;59.57;100205.22;4923532;29;20090;-84
2022/05/18 07:19:56;;;;;;;1.60;1.50;;;;;;;21.67;59.55;100195.59;4939376;29;20393;-84
2022/05/18 07:22:21;;;;;;;2.03;1.60;;;;;;;21.71;58.74;100201.47;4939324;29;20031;-85
2022/05/18 07:24:47;;;;;;;1.67;1.40;;;;;;;21.75;60.69;100200.03;4938255;29;20057;-85
2022/05/18 07:27:12;;;;;;;1.52;1.20;;;;;;;21.79;61.16;100204.03;4931427;28;20061;-87
2022/05/18 07:29:37;;;;;;;2.75;1.30;;;;;;;21.78;61.23;100205.94;4940742;28;20140;-84
2022/05/18 07:32:09;;;;;;;3.08;1.20;;;;;;;21.80;61.64;100206.56;4957639;28;20065;-84
2022/05/18 07:34:41;;;;;;;1.67;1.35;;;;;;;21.79;61.51;100204.03;4939092;29;20046;-85
2022/05/18 07:37:07;;;;;;;2.92;1.35;;;;;;;21.80;62.38;100205.72;4956020;28;20030;-85
2022/05/18 07:39:32;;;;;;;1.77;1.20;;;;;;;21.82;61.66;100199.03;4938819;28;20039;-84
2022/05/18 07:41:58;;;;;;;2.15;1.35;;;;;;;21.87;62.88;100212.03;4940360;28;20026;-84
2022/05/18 07:44:25;;;;;;;2.55;1.27;;;;;;;21.88;61.90;100200.09;4940405;28;20039;-84
2022/05/18 07:46:50;;;;;;;5.38;1.50;;;;;;;21.91;61.61;100205.97;4956351;28;20027;-84
2022/05/18 07:49:15;;;;;;;1.58;1.40;;;;;;;21.97;61.84;100209.75;4956910;28;20025;-83
2022/05/18 07:51:41;;;;;;;1.30;1.20;;;;;;;21.99;62.13;100213.94;4942024;28;20023;-84
2022/05/18 07:54:06;;;;;;;2.03;1.30;;;;;;;22.02;62.59;100214.56;4957579;28;20027;-84
2022/05/18 07:56:34;;;;;;;2.03;1.33;;;;;;;22.04;61.72;100216.06;4956330;28;20026;-85
2022/05/18 07:59:00;;;;;;;1.95;1.20;;;;;;;22.07;62.47;100215.66;4942004;28;20429;-84
2022/05/18 08:01:25;;;;;;;1.50;1.20;;;;;;;22.10;63.08;100217.13;4941731;28;20022;-84
2022/05/18 08:03:51;;;;;;;2.22;1.30;;;;;;;22.12;62.13;100210.44;4941285;28;20110;-83
2022/05/18 08:06:16;;;;;;;1.33;1.23;;;;;;;22.16;61.00;100210.84;4941758;28;20457;-84
2022/05/18 08:08:41;;;;;;;2.15;1.40;;;;;;;22.17;60.06;100212.53;4956978;28;20053;-85
2022/05/18 08:16:35;;;;;;;1.63;1.25;;;;;;;22.26;61.85;100217.59;4959325;28;20397;-84
2022/05/18 08:19:01;;;;;;;2.92;1.38;;;;;;;22.28;61.21;100220.97;4956639;28;20445;-84
2022/05/18 08:21:26;;;;;;;1.83;1.20;;;;;;;22.31;63.06;100225.16;4956831;28;20130;-84
2022/05/18 08:23:52;;;;;;;1.52;1.20;;;;;;;22.33;63.18;100231.25;4956882;28;20039;-84
2022/05/18 08:26:17;;;;;;;1.85;1.30;;;;;;;22.34;62.53;100229.34;4937777;29;20061;-84
2022/05/18 08:28:43;;;;;;;1.20;1.10;;;;;;;22.34;62.01;100230.19;4937786;28;20027;-84
2022/05/18 08:31:08;;;;;;;1.65;1.30;;;;;;;22.39;60.61;100241.31;4940908;28;20057;-84
2022/05/18 08:33:34;;;;;;;2.15;1.40;;;;;;;22.37;60.13;100235.22;4939997;28;20508;-84
2022/05/18 08:36:03;;;;;;;1.45;1.08;;;;;;;22.38;61.02;100244.25;4937995;28;20388;-84
2022/05/18 08:38:29;;;;;;;4.80;1.90;;;;;;;22.39;59.69;100240.47;4940596;28;20033;-84
2022/05/18 08:40:58;;;;;;;5.22;1.73;;;;;;;22.42;59.03;100240.91;4950268;28;20023;-84
2022/05/18 08:43:33;;;;;;;4.35;1.55;;;;;;;22.49;58.78;100238.16;4940755;28;20089;-95
2022/05/18 08:46:13;;;;;;;3.35;1.80;;;;;;;22.72;59.71;100252.25;4954388;28;20472;-84
2022/05/18 08:48:47;;;;;;;3.90;2.22;;;;;;;22.78;59.69;100254.13;4963617;28;20023;-88
2022/05/18 08:51:38;;;;;;;3.13;2.15;;;;;;;22.78;60.70;100256.03;4957546;28;20077;-84
2022/05/18 08:54:20;;;;;;;5.70;2.28;;;;;;;22.80;60.58;100253.94;4930073;28;20035;-85
2022/05/18 08:56:46;;;;;;;2.58;2.15;;;;;;;22.75;60.89;100261.91;4957466;28;20027;-84
2022/05/18 08:59:17;;;;;;;4.57;2.38;;;;;;;22.70;60.32;100258.94;4957169;28;20035;-83
2022/05/18 09:01:46;;;;;;;6.05;2.22;;;;;;;22.58;60.33;100264.19;4941156;28;20118;-84
2022/05/18 09:04:18;;;;;;;5.28;2.55;;;;;;;22.63;60.96;100267.13;4957960;28;20034;-85
2022/05/18 09:07:02;;;;;;;5.70;2.65;;;;;;;22.67;60.62;100275.72;4957293;28;20026;-85
2022/05/18 09:12:27;;;;;;;4.53;2.67;;;;;;;22.63;60.54;100272.56;4974357;28;20554;-84
2022/05/18 09:14:57;;;;;;;4.47;2.72;;;;;;;22.68;60.95;100272.78;4956404;28;20134;-84
2022/05/18 09:17:30;;;;;;;6.75;2.90;;;;;;;22.72;60.47;100271.34;4934522;28;20515;-86
2022/05/18 09:20:21;;;;;;;8.45;2.67;;;;;;;22.71;60.46;100260.66;4964774;28;20145;-84
2022/05/18 09:23:00;;;;;;;5.18;2.53;;;;;;;22.71;59.82;100268.81;4938462;28;20081;-85
2022/05/18 09:25:52;;;;;;;5.18;3.00;;;;;;;22.72;59.03;100265.88;4956586;28;20460;-84
2022/05/18 09:28:36;;;;;;;4.30;2.80;;;;;;;22.76;59.12;100266.31;4960336;28;20129;-84
2022/05/18 09:31:26;;;;;;;4.32;2.70;;;;;;;22.80;58.60;100257.53;4977790;28;20030;-84
2022/05/18 09:34:01;;;;;;;4.32;2.53;;;;;;;22.81;58.87;100252.91;4960370;28;20026;-85
2022/05/18 09:37:05;;;;;;;4.45;2.47;;;;;;;22.78;59.31;100256.88;4944733;28;20118;-84
2022/05/18 09:39:35;;;;;;;3.72;2.58;;;;;;;22.79;58.49;100250.38;4960299;28;20126;-86
2022/05/18 09:42:35;;;;;;;5.13;2.40;;;;;;;22.76;58.33;100244.50;4960770;28;20098;-84
2022/05/18 09:45:00;;;;;;;3.40;2.70;;;;;;;22.78;58.41;100250.56;4943255;28;20034;-84
2022/05/18 09:47:27;;;;;;;6.38;3.22;;;;;;;22.85;58.89;100248.72;4977790;28;20026;-85
2022/05/18 09:49:55;;;;;;;3.88;2.65;;;;;;;22.86;58.59;100253.97;4960638;28;20354;-83
2022/05/18 09:52:24;;;;;;;6.55;3.00;;;;;;;22.93;59.69;100251.22;4959949;28;20389;-84
2022/05/18 09:54:51;;;;;;;3.72;2.83;;;;;;;22.84;59.22;100252.50;4960536;28;20031;-84
2022/05/18 09:57:20;;;;;;;4.25;2.58;;;;;;;22.81;58.82;100245.56;4959961;28;20110;-85
2022/05/18 09:59:49;;;;;;;3.92;2.47;;;;;;;22.72;59.46;100248.69;4959862;28;20031;-84
2022/05/18 10:07:52;;;;;;;3.85;2.70;;;;;;;22.82;59.80;100233.59;4963101;28;20516;-84
2022/05/18 10:10:44;;;;;;;5.20;2.60;;;;;;;22.79;58.66;100231.28;4940547;29;20039;-84
2022/05/18 10:13:15;;;;;;;3.80;2.50;;;;;;;22.91;58.07;100228.78;4942888;28;20377;-85
2022/05/18 10:15:46;;;;;;;3.72;2.30;;;;;;;22.90;58.63;100232.56;4951397;28;20054;-85
2022/05/18 10:18:17;;;;;;;5.68;2.95;;;;;;;22.88;58.33;100234.66;4939573;28;20038;-82
2022/05/18 10:20:43;;;;;;;4.50;2.88;;;;;;;22.86;57.88;100236.75;4943395;28;20070;-84
2022/05/18 10:23:32;;;;;;;6.20;2.65;;;;;;;22.85;58.79;100230.47;4959462;28;20043;-84
2022/05/18 10:25:58;;;;;;;4.00;2.13;;;;;;;22.79;58.00;100228.53;4941568;28;20488;-86
2022/05/18 10:28:32;;;;;;;3.45;2.15;;;;;;;22.74;58.87;100231.06;4941642;28;20118;-85
2022/05/18 10:31:03;;;;;;;5.10;2.85;;;;;;;22.83;58.60;100223.53;4942519;28;20034;-85
2022/05/18 10:33:37;;;;;;;2.60;2.40;;;;;;;22.83;59.13;100232.56;4958218;28;20031;-85
2022/05/18 10:36:10;;;;;;;4.78;2.40;;;;;;;22.79;59.25;100234.00;4942336;28;20031;-85
2022/05/18 10:38:37;;;;;;;3.75;2.10;;;;;;;22.75;59.84;100224.56;4975286;28;20031;-86
2022/05/18 10:41:06;;;;;;;3.17;2.20;;;;;;;22.83;59.62;100223.53;4942192;28;20392;-84
2022/05/18 10:43:33;;;;;;;2.50;1.90;;;;;;;22.80;61.27;100216.63;4958102;28;20035;-85
2022/05/18 10:46:08;;;;;;;2.72;1.85;;;;;;;22.79;61.09;100219.53;4957885;28;20416;-85
2022/05/18 10:48:34;;;;;;;2.75;1.77;;;;;;;22.79;60.47;100212.19;4958238;28;20532;-85
2022/05/18 10:51:06;;;;;;;2.63;1.98;;;;;;;22.81;59.90;100212.00;4957825;28;20126;-85
2022/05/18 10:53:52;;;;;;;4.38;2.45;;;;;;;22.84;59.08;100211.56;4942108;28;20481;-85
2022/05/18 10:56:31;;;;;;;2.70;1.90;;;;;;;22.84;58.40;100208.84;4957129;28;20153;-85
2022/05/18 10:59:14;;;;;;;;;;;;;;;22.82;59.71;100214.53;4958329;28;20062;-86
2022/05/18 11:01:50;;;;;;;6.15;2.42;;;;;;;22.91;57.04;100205.06;4957590;28;19910;-85
2022/05/18 11:04:19;;;;;;;3.22;2.30;;;;;;;22.91;57.66;100207.78;4957652;28;20056;-86
2022/05/18 11:06:44;;;;;;;4.75;2.17;;;;;;;22.87;57.96;100206.53;4941497;28;20034;-84
2022/05/18 11:09:22;;;;;;;4.65;2.38;;;;;;;23.14;55.45;100210.03;4974918;28;20023;-86
2022/05/18 11:12:02;;;;;;;3.25;1.90;;;;;;;23.07;56.58;100197.47;4953335;28;20132;-85
2022/05/18 11:14:38;;;;;;;4.82;2.28;;;;;;;23.21;54.54;100201.88;4974775;28;20507;-86
2022/05/18 11:17:04;;;;;;;2.95;2.00;;;;;;;23.19;54.69;100195.78;4957605;28;20039;-86
2022/05/18 11:19:51;;;;;;;3.15;2.17;;;;;;;23.22;54.89;100195.34;4941740;28;20122;-86
2022/05/18 11:22:31;;;;;;;4.30;2.30;;;;;;;23.40;54.14;100202.84;4974902;28;20031;-86
2022/05/18 11:25:16;;;;;;;3.50;2.05;;;;;;;23.33;54.74;100194.69;4957239;28;20109;-86
2022/05/18 11:27:57;;;;;;;3.90;1.90;;;;;;;23.29;54.81;100198.91;4941239;28;20027;-86
2022/05/18 11:30:33;;;;;;;3.00;1.90;;;;;;;23.71;52.22;100191.22;4956161;28;20175;-84
2022/05/18 11:33:24;;;;;;;2.33;1.73;;;;;;;23.85;50.76;100199.13;4941933;28;20023;-86
2022/05/18 11:36:21;;;;;;;3.20;1.98;;;;;;;23.50;55.03;100184.94;4940460;28;20037;-87
2022/05/18 11:39:20;;;;;;;2.70;1.85;;;;;;;23.41;55.61;100190.88;4940621;28;20035;-86
2022/05/18 11:42:10;;;;;;;3.45;2.28;;;;;;;23.55;54.23;100182.44;4956586;28;20031;-85
2022/05/18 11:45:14;;;;;;;3.42;2.03;;;;;;;23.62;54.66;100187.03;4954876;28;20601;-84
2022/05/18 11:47:56;;;;;;;2.20;1.90;;;;;;;23.44;55.68;100183.09;4953231;28;20114;-85
2022/05/18 11:50:21;;;;;;;2.75;1.90;;;;;;;23.50;55.63;100184.13;4973109;28;20074;-85
2022/05/18 11:52:57;;;;;;;2.10;1.87;;;;;;;23.41;57.67;100178.06;4957020;28;20031;-85
2022/05/18 11:55:34;;;;;;;3.47;2.17;;;;;;;23.37;57.77;100174.09;4939466;28;20298;-85